Time;durP1;ratioP1;P1;durP2;ratioP2;P2;SDS_P1;SDS_P2;PMS_P1;PMS_P2;Temp;Humidity;BMP_temperature;BMP_pressure;BME280_temperature;BME280_humidity;BME280_pressure;Samples;Min_cycle;Max_cycle;Signal;HPM_P1;HPM_P2
2022/03/06 00:00:36;;;;;;;19.60;12.63;;;;;;;;;;5014955;28;20213;-79
2022/03/06 00:03:04;;;;;;;22.70;15.83;;;;;;;;;;5016709;28;20234;-79
2022/03/06 00:05:36;;;;;;;17.97;11.70;;;;;;;;;;5014670;28;20249;-77
2022/03/06 00:08:07;;;;;;;19.10;12.67;;;;;;;;;;5014730;28;20669;-77
2022/03/06 00:10:34;;;;;;;20.63;13.13;;;;;;;;;;5015469;28;20298;-77
2022/03/06 00:13:04;;;;;;;19.93;12.53;;;;;;;;;;5014757;28;20716;-77
2022/03/06 00:15:34;;;;;;;18.83;12.40;;;;;;;;;;5015076;28;20203;-77
2022/03/06 00:18:10;;;;;;;18.00;11.67;;;;;;;;;;5014236;28;20293;-77
2022/03/06 00:20:37;;;;;;;17.97;11.83;;;;;;;;;;5015300;28;20210;-77
2022/03/06 00:23:05;;;;;;;18.80;11.53;;;;;;;;;;5015049;28;20325;-77
2022/03/06 00:25:38;;;;;;;19.33;11.27;;;;;;;;;;5014550;28;20218;-77
2022/03/06 00:28:16;;;;;;;17.97;11.53;;;;;;;;;;5014837;28;20206;-77
2022/03/06 00:30:43;;;;;;;15.70;11.87;;;;;;;;;;5014262;28;20206;-77
2022/03/06 00:33:15;;;;;;;18.43;11.87;;;;;;;;;;5014670;28;20231;-77
2022/03/06 00:35:45;;;;;;;17.80;11.43;;;;;;;;;;5014517;28;20245;-77
2022/03/06 00:38:12;;;;;;;19.70;12.17;;;;;;;;;;5014594;28;20246;-77
2022/03/06 00:40:42;;;;;;;18.17;12.07;;;;;;;;;;5014636;28;20230;-79
2022/03/06 00:43:13;;;;;;;21.33;14.10;;;;;;;;;;5015576;28;20260;-78
2022/03/06 00:45:40;;;;;;;21.13;14.37;;;;;;;;;;5015498;28;20234;-78
2022/03/06 00:48:07;;;;;;;20.93;13.73;;;;;;;;;;5014866;28;20210;-78
2022/03/06 00:50:38;;;;;;;18.17;12.60;;;;;;;;;;5015662;28;20226;-79
2022/03/06 00:53:08;;;;;;;19.97;12.37;;;;;;;;;;5015476;28;20218;-78
2022/03/06 00:55:36;;;;;;;18.73;11.70;;;;;;;;;;5012345;28;20272;-78
2022/03/06 00:58:09;;;;;;;18.67;12.50;;;;;;;;;;5014895;28;20237;-77
2022/03/06 01:00:39;;;;;;;18.43;12.00;;;;;;;;;;5015004;28;20694;-78
2022/03/06 01:03:10;;;;;;;20.00;12.17;;;;;;;;;;5014934;28;20226;-78
2022/03/06 01:05:39;;;;;;;18.50;12.23;;;;;;;;;;5014954;28;20237;-77
2022/03/06 01:08:10;;;;;;;18.13;12.10;;;;;;;;;;5013505;28;20386;-77
2022/03/06 01:10:38;;;;;;;16.83;12.33;;;;;;;;;;5013657;28;20268;-77
2022/03/06 01:13:06;;;;;;;21.13;13.20;;;;;;;;;;5014943;28;20230;-77
2022/03/06 01:15:37;;;;;;;19.07;13.03;;;;;;;;;;5013954;28;20241;-78
2022/03/06 01:18:06;;;;;;;20.67;12.10;;;;;;;;;;5013665;28;20214;-78
2022/03/06 01:20:37;;;;;;;18.43;12.90;;;;;;;;;;5014457;28;20228;-78
2022/03/06 01:23:08;;;;;;;17.77;12.63;;;;;;;;;;5014080;28;20222;-77
2022/03/06 01:25:44;;;;;;;17.90;11.70;;;;;;;;;;5012790;28;20214;-78
2022/03/06 01:28:19;;;;;;;20.30;12.63;;;;;;;;;;5014837;28;20205;-77
2022/03/06 01:30:46;;;;;;;19.47;12.33;;;;;;;;;;5015337;28;20203;-77
2022/03/06 01:33:14;;;;;;;16.97;11.90;;;;;;;;;;5029416;22;20341;-79
2022/03/06 01:35:41;;;;;;;18.80;12.03;;;;;;;;;;5013159;28;20244;-79
2022/03/06 01:38:09;;;;;;;17.07;11.47;;;;;;;;;;5012368;28;20198;-80
2022/03/06 01:40:37;;;;;;;17.63;11.37;;;;;;;;;;5012843;28;20205;-80
2022/03/06 01:43:04;;;;;;;15.87;10.73;;;;;;;;;;5012843;28;20292;-79
2022/03/06 01:45:31;;;;;;;18.87;11.67;;;;;;;;;;5012879;28;20198;-78
2022/03/06 01:47:59;;;;;;;19.33;11.73;;;;;;;;;;5012545;28;20349;-79
2022/03/06 01:50:28;;;;;;;17.37;11.67;;;;;;;;;;5012965;28;20215;-80
2022/03/06 01:52:57;;;;;;;18.53;12.10;;;;;;;;;;5014169;28;20234;-79
2022/03/06 01:55:27;;;;;;;17.77;12.13;;;;;;;;;;5013115;28;20245;-79
2022/03/06 01:57:54;;;;;;;17.50;11.47;;;;;;;;;;5012550;28;20242;-79
2022/03/06 02:00:22;;;;;;;21.03;12.03;;;;;;;;;;5011959;28;20206;-79
2022/03/06 02:02:50;;;;;;;19.70;12.03;;;;;;;;;;5013059;28;20296;-79
2022/03/06 02:05:18;;;;;;;17.57;12.47;;;;;;;;;;5013269;28;20214;-79
2022/03/06 02:07:45;;;;;;;15.73;11.10;;;;;;;;;;5012599;28;20214;-79
2022/03/06 02:10:14;;;;;;;17.60;11.67;;;;;;;;;;5013262;28;20202;-81
2022/03/06 02:12:43;;;;;;;17.90;11.77;;;;;;;;;;5012944;28;20222;-80
2022/03/06 02:15:11;;;;;;;17.77;11.83;;;;;;;;;;5012866;28;20241;-78
2022/03/06 02:17:38;;;;;;;17.37;11.27;;;;;;;;;;5011895;28;20240;-79
2022/03/06 02:20:08;;;;;;;17.50;11.07;;;;;;;;;;5005462;28;20199;-79
2022/03/06 02:22:37;;;;;;;17.77;12.00;;;;;;;;;;5009136;28;20225;-80
2022/03/06 02:25:06;;;;;;;16.40;11.13;;;;;;;;;;5016782;28;20214;-79
2022/03/06 02:27:33;;;;;;;21.63;12.97;;;;;;;;;;5011388;28;20205;-79
2022/03/06 02:30:00;;;;;;;19.30;12.57;;;;;;;;;;5007507;28;20244;-79
2022/03/06 02:32:28;;;;;;;18.93;11.40;;;;;;;;;;5007681;28;20279;-79
2022/03/06 02:34:55;;;;;;;19.77;12.37;;;;;;;;;;5007415;28;20261;-79
2022/03/06 02:37:23;;;;;;;19.43;12.57;;;;;;;;;;5012557;28;20230;-79
2022/03/06 02:39:51;;;;;;;18.50;12.07;;;;;;;;;;5012822;28;20214;-79
2022/03/06 02:42:26;;;;;;;16.27;11.40;;;;;;;;;;5013033;28;20321;-79
2022/03/06 02:44:53;;;;;;;17.47;11.47;;;;;;;;;;5006962;28;20213;-79
2022/03/06 02:47:21;;;;;;;15.37;10.83;;;;;;;;;;5006357;28;20233;-79
2022/03/06 02:49:49;;;;;;;18.87;11.87;;;;;;;;;;5012901;28;20305;-79
2022/03/06 02:52:16;;;;;;;18.37;12.13;;;;;;;;;;5013220;28;20246;-79
2022/03/06 02:54:43;;;;;;;17.17;11.73;;;;;;;;;;5012771;28;20293;-79
2022/03/06 02:57:12;;;;;;;19.37;12.07;;;;;;;;;;5012538;28;20237;-80
2022/03/06 02:59:40;;;;;;;16.50;11.30;;;;;;;;;;5012616;28;20265;-79
2022/03/06 03:02:08;;;;;;;19.87;12.47;;;;;;;;;;5012668;28;20264;-79
2022/03/06 03:04:37;;;;;;;18.73;11.73;;;;;;;;;;5011172;28;20230;-79
2022/03/06 03:07:04;;;;;;;18.63;11.40;;;;;;;;;;5011774;28;20680;-79
2022/03/06 03:09:31;;;;;;;19.63;11.93;;;;;;;;;;5012628;28;20234;-79
2022/03/06 03:11:59;;;;;;;18.63;11.77;;;;;;;;;;5012276;28;20214;-79
2022/03/06 03:14:31;;;;;;;19.23;12.93;;;;;;;;;;5016413;28;20261;-81
2022/03/06 03:16:58;;;;;;;20.17;12.27;;;;;;;;;;5013990;28;20261;-79
2022/03/06 03:19:26;;;;;;;18.53;12.07;;;;;;;;;;5010425;28;20298;-79
2022/03/06 03:21:53;;;;;;;20.40;11.93;;;;;;;;;;5015199;28;20203;-79
2022/03/06 03:24:21;;;;;;;19.03;12.87;;;;;;;;;;5013365;28;20280;-80
2022/03/06 03:26:48;;;;;;;19.23;12.60;;;;;;;;;;5013697;28;20277;-79
2022/03/06 03:29:15;;;;;;;18.87;11.97;;;;;;;;;;5016937;28;20237;-79
2022/03/06 03:31:44;;;;;;;22.07;12.53;;;;;;;;;;5015872;28;20206;-80
2022/03/06 03:34:11;;;;;;;21.20;13.30;;;;;;;;;;5016414;28;20226;-80
2022/03/06 03:36:39;;;;;;;21.03;12.50;;;;;;;;;;5015583;28;20203;-83
2022/03/06 03:39:07;;;;;;;19.43;12.57;;;;;;;;;;5016559;28;20305;-80
2022/03/06 03:41:35;;;;;;;19.87;11.53;;;;;;;;;;5016127;28;20209;-80
2022/03/06 03:44:03;;;;;;;19.50;12.27;;;;;;;;;;5016287;28;20222;-80
2022/03/06 03:46:30;;;;;;;20.17;12.23;;;;;;;;;;5014884;28;20297;-80
2022/03/06 03:48:59;;;;;;;20.73;12.57;;;;;;;;;;5016137;28;20249;-80
2022/03/06 03:51:26;;;;;;;18.90;11.40;;;;;;;;;;5016512;28;20237;-80
2022/03/06 03:53:54;;;;;;;19.60;12.30;;;;;;;;;;5016603;28;20276;-80
2022/03/06 03:56:22;;;;;;;17.60;11.50;;;;;;;;;;5012628;28;20206;-80
2022/03/06 03:58:49;;;;;;;18.90;12.17;;;;;;;;;;5009986;28;20206;-80
2022/03/06 04:01:18;;;;;;;18.30;11.37;;;;;;;;;;5016550;28;20253;-80
2022/03/06 04:03:45;;;;;;;18.13;12.03;;;;;;;;;;5016208;28;20222;-81
2022/03/06 04:06:14;;;;;;;18.30;12.03;;;;;;;;;;5011904;28;20214;-80
2022/03/06 04:08:41;;;;;;;20.27;12.50;;;;;;;;;;5014480;28;20673;-78
2022/03/06 04:11:09;;;;;;;19.47;12.10;;;;;;;;;;5014518;28;20236;-78
2022/03/06 04:13:36;;;;;;;19.93;12.30;;;;;;;;;;5008679;28;20314;-78
2022/03/06 04:16:03;;;;;;;17.77;11.83;;;;;;;;;;5014561;28;20233;-80
2022/03/06 04:18:31;;;;;;;19.93;11.93;;;;;;;;;;5016341;28;20253;-80
2022/03/06 04:20:58;;;;;;;19.60;11.83;;;;;;;;;;5018372;28;20213;-80
2022/03/06 04:23:27;;;;;;;21.07;12.20;;;;;;;;;;5013938;28;20313;-78
2022/03/06 04:25:54;;;;;;;19.47;11.70;;;;;;;;;;5014288;28;20237;-78
2022/03/06 04:28:21;;;;;;;19.93;12.90;;;;;;;;;;5014564;28;20302;-80
2022/03/06 04:30:48;;;;;;;20.97;12.53;;;;;;;;;;5014283;28;20293;-78
2022/03/06 04:33:16;;;;;;;20.20;12.57;;;;;;;;;;5015731;28;20262;-81
2022/03/06 04:35:43;;;;;;;19.53;12.03;;;;;;;;;;5016253;28;20234;-77
2022/03/06 04:38:10;;;;;;;18.93;12.30;;;;;;;;;;5014721;28;20206;-80
2022/03/06 04:40:39;;;;;;;17.67;11.57;;;;;;;;;;5014425;28;20206;-78
2022/03/06 04:43:06;;;;;;;16.20;10.73;;;;;;;;;;5017019;28;20230;-80
2022/03/06 04:45:34;;;;;;;19.67;12.90;;;;;;;;;;5014753;28;20675;-79
2022/03/06 04:48:01;;;;;;;22.80;12.73;;;;;;;;;;5013873;28;20210;-78
2022/03/06 04:50:28;;;;;;;17.63;11.50;;;;;;;;;;5013846;28;20210;-78
2022/03/06 04:52:56;;;;;;;19.57;12.07;;;;;;;;;;5014439;28;20288;-79
2022/03/06 04:55:23;;;;;;;21.17;11.83;;;;;;;;;;5013957;28;20209;-78
2022/03/06 04:57:52;;;;;;;20.13;12.20;;;;;;;;;;5013509;28;20211;-79
2022/03/06 05:00:19;;;;;;;19.57;12.00;;;;;;;;;;5014299;28;20285;-78
2022/03/06 05:02:47;;;;;;;17.43;10.83;;;;;;;;;;5013990;28;20230;-79
2022/03/06 05:05:15;;;;;;;19.17;12.53;;;;;;;;;;5013442;28;20200;-79
2022/03/06 05:07:42;;;;;;;18.47;11.17;;;;;;;;;;5012612;28;20293;-79
2022/03/06 05:10:10;;;;;;;18.07;11.70;;;;;;;;;;5013363;28;20241;-78
2022/03/06 05:12:38;;;;;;;18.10;11.97;;;;;;;;;;5013557;28;20232;-78
2022/03/06 05:15:09;;;;;;;18.07;10.97;;;;;;;;;;5013134;28;20221;-78
2022/03/06 05:17:36;;;;;;;15.80;10.93;;;;;;;;;;5012571;28;20273;-78
2022/03/06 05:20:04;;;;;;;18.07;11.30;;;;;;;;;;5013509;28;20242;-79
2022/03/06 05:22:31;;;;;;;18.50;11.97;;;;;;;;;;5013267;28;20229;-78
2022/03/06 05:24:59;;;;;;;17.13;11.33;;;;;;;;;;5013344;28;20236;-79
2022/03/06 05:27:26;;;;;;;16.77;9.97;;;;;;;;;;5012799;28;20313;-79
2022/03/06 05:29:54;;;;;;;20.47;11.67;;;;;;;;;;5013314;28;20256;-78
2022/03/06 05:32:23;;;;;;;20.70;11.43;;;;;;;;;;5013271;28;20229;-78
2022/03/06 05:34:50;;;;;;;16.80;11.10;;;;;;;;;;5013062;28;20223;-78
2022/03/06 05:37:18;;;;;;;20.70;11.63;;;;;;;;;;5013736;28;20202;-79
2022/03/06 05:39:45;;;;;;;19.07;11.20;;;;;;;;;;5013851;28;20653;-79
2022/03/06 05:42:14;;;;;;;18.60;12.13;;;;;;;;;;5013515;28;20206;-78
2022/03/06 05:44:41;;;;;;;19.10;11.60;;;;;;;;;;5012780;28;20211;-78
2022/03/06 05:47:09;;;;;;;21.10;11.40;;;;;;;;;;5012597;28;20210;-79
2022/03/06 05:49:37;;;;;;;17.13;11.40;;;;;;;;;;5013017;28;20211;-80
2022/03/06 05:52:05;;;;;;;18.43;11.40;;;;;;;;;;5012856;28;20208;-78
2022/03/06 05:54:32;;;;;;;19.00;11.30;;;;;;;;;;5012486;28;20218;-78
2022/03/06 05:57:00;;;;;;;18.30;11.30;;;;;;;;;;5012262;28;20297;-78
2022/03/06 05:59:27;;;;;;;17.07;10.90;;;;;;;;;;5012947;28;20226;-78
2022/03/06 06:01:54;;;;;;;15.57;10.70;;;;;;;;;;5012513;28;20210;-78
2022/03/06 06:04:22;;;;;;;18.10;11.57;;;;;;;;;;5012799;28;20226;-78
2022/03/06 06:06:50;;;;;;;19.03;11.53;;;;;;;;;;5012169;28;20265;-79
2022/03/06 06:09:18;;;;;;;17.97;11.53;;;;;;;;;;5012513;28;20214;-78
2022/03/06 06:11:45;;;;;;;18.00;11.10;;;;;;;;;;5011707;28;20202;-78
2022/03/06 06:14:12;;;;;;;17.47;11.30;;;;;;;;;;5012457;28;20253;-78
2022/03/06 06:16:40;;;;;;;16.60;10.97;;;;;;;;;;5010897;28;20199;-77
2022/03/06 06:19:07;;;;;;;17.20;11.43;;;;;;;;;;5010295;28;20301;-78
2022/03/06 06:21:34;;;;;;;18.17;11.20;;;;;;;;;;5007783;28;20211;-78
2022/03/06 06:24:03;;;;;;;18.27;10.80;;;;;;;;;;5008401;28;20300;-78
2022/03/06 06:26:31;;;;;;;17.97;11.77;;;;;;;;;;5012741;28;20210;-80
2022/03/06 06:29:00;;;;;;;19.27;12.33;;;;;;;;;;5013961;28;20199;-79
2022/03/06 06:31:28;;;;;;;17.90;11.60;;;;;;;;;;5012986;28;20206;-80
2022/03/06 06:33:56;;;;;;;18.93;12.47;;;;;;;;;;5012102;28;20226;-77
2022/03/06 06:36:23;;;;;;;17.47;12.80;;;;;;;;;;5012946;28;20301;-79
2022/03/06 06:38:50;;;;;;;19.70;12.03;;;;;;;;;;5013996;28;20210;-77
2022/03/06 06:41:19;;;;;;;17.37;11.33;;;;;;;;;;5012611;28;20285;-79
2022/03/06 06:43:47;;;;;;;19.10;12.27;;;;;;;;;;5011721;28;20226;-77
2022/03/06 06:46:14;;;;;;;17.67;11.83;;;;;;;;;;5010677;28;20221;-79
2022/03/06 06:48:41;;;;;;;18.50;12.63;;;;;;;;;;5017042;28;20206;-76
2022/03/06 06:51:11;;;;;;;17.00;11.70;;;;;;;;;;5014496;28;20263;-77
2022/03/06 06:53:39;;;;;;;19.70;12.07;;;;;;;;;;5020585;28;20226;-78
2022/03/06 06:56:09;;;;;;;20.37;12.83;;;;;;;;;;5014009;28;20630;-81
2022/03/06 06:58:38;;;;;;;15.70;10.83;;;;;;;;;;5014840;28;20202;-77
2022/03/06 07:01:14;;;;;;;18.17;11.73;;;;;;;;;;5018577;28;20223;-86
2022/03/06 07:03:42;;;;;;;20.07;12.33;;;;;;;;;;5014388;28;20676;-76
2022/03/06 07:06:09;;;;;;;17.57;12.00;;;;;;;;;;5019221;28;20206;-78
2022/03/06 07:08:36;;;;;;;19.53;12.27;;;;;;;;;;5017395;28;20202;-78
2022/03/06 07:11:04;;;;;;;19.57;11.73;;;;;;;;;;5020122;28;20198;-83
2022/03/06 07:13:39;;;;;;;18.83;12.23;;;;;;;;;;5019825;28;20314;-85
2022/03/06 07:16:07;;;;;;;16.00;11.93;;;;;;;;;;5014607;28;20264;-78
2022/03/06 07:18:34;;;;;;;17.17;12.03;;;;;;;;;;5023411;28;20213;-81
2022/03/06 07:21:04;;;;;;;17.77;12.70;;;;;;;;;;5019608;28;20199;-78
2022/03/06 07:23:31;;;;;;;16.50;11.87;;;;;;;;;;5017760;28;20230;-78
2022/03/06 07:25:58;;;;;;;17.00;11.63;;;;;;;;;;5019303;28;20210;-78
2022/03/06 07:28:26;;;;;;;19.30;12.63;;;;;;;;;;5018125;28;20225;-79
2022/03/06 07:30:55;;;;;;;18.13;12.20;;;;;;;;;;5021795;28;20199;-79
2022/03/06 07:33:22;;;;;;;17.93;11.83;;;;;;;;;;5036418;22;20230;-76
2022/03/06 07:35:49;;;;;;;15.93;11.53;;;;;;;;;;5019972;28;20219;-76
2022/03/06 07:38:16;;;;;;;16.90;11.70;;;;;;;;;;5019034;28;20294;-75
2022/03/06 07:40:44;;;;;;;18.23;12.07;;;;;;;;;;5020074;28;20206;-75
2022/03/06 07:43:11;;;;;;;18.47;11.83;;;;;;;;;;5024044;28;20671;-76
2022/03/06 07:45:38;;;;;;;15.77;11.57;;;;;;;;;;5020934;28;20206;-75
2022/03/06 07:48:07;;;;;;;17.60;12.10;;;;;;;;;;5018517;28;20206;-76
2022/03/06 07:50:34;;;;;;;17.00;11.47;;;;;;;;;;5019479;28;20238;-77
2022/03/06 07:53:02;;;;;;;20.03;12.33;;;;;;;;;;5018688;28;20321;-76
2022/03/06 07:55:29;;;;;;;18.07;12.17;;;;;;;;;;5023022;28;20317;-75
2022/03/06 07:57:56;;;;;;;17.37;12.07;;;;;;;;;;5035690;28;20296;-75
2022/03/06 08:00:23;;;;;;;17.80;12.03;;;;;;;;;;5034470;28;20209;-75
2022/03/06 08:02:50;;;;;;;16.17;11.87;;;;;;;;;;5016934;28;20230;-75
2022/03/06 08:05:19;;;;;;;17.70;12.80;;;;;;;;;;5015663;28;20276;-75
2022/03/06 08:07:46;;;;;;;18.37;12.73;;;;;;;;;;5015206;28;20213;-75
2022/03/06 08:10:13;;;;;;;16.63;11.90;;;;;;;;;;5025693;28;20297;-75
2022/03/06 08:12:41;;;;;;;17.63;12.80;;;;;;;;;;5026405;28;20257;-75
2022/03/06 08:15:09;;;;;;;19.73;12.60;;;;;;;;;;5023412;28;20233;-75
2022/03/06 08:17:36;;;;;;;16.00;12.20;;;;;;;;;;5027197;28;20210;-78
2022/03/06 08:20:04;;;;;;;19.60;12.93;;;;;;;;;;5030314;28;20209;-75
2022/03/06 08:22:33;;;;;;;18.50;13.00;;;;;;;;;;5022578;28;20538;-75
2022/03/06 08:25:00;;;;;;;18.90;12.03;;;;;;;;;;5023092;28;20203;-80
2022/03/06 08:27:28;;;;;;;18.97;12.37;;;;;;;;;;5028186;28;20214;-75
2022/03/06 08:29:55;;;;;;;17.70;12.63;;;;;;;;;;5021491;28;20259;-75
2022/03/06 08:32:22;;;;;;;16.87;12.73;;;;;;;;;;5014794;28;20206;-76
2022/03/06 08:34:51;;;;;;;16.03;11.90;;;;;;;;;;5022088;28;20231;-80
2022/03/06 08:37:18;;;;;;;15.97;11.97;;;;;;;;;;5028081;28;20691;-78
2022/03/06 08:39:47;;;;;;;16.80;11.47;;;;;;;;;;5016305;28;20213;-78
2022/03/06 08:42:14;;;;;;;16.63;11.97;;;;;;;;;;5022792;28;20210;-78
2022/03/06 08:44:42;;;;;;;16.97;12.30;;;;;;;;;;5015790;28;20290;-82
2022/03/06 08:47:10;;;;;;;17.77;12.13;;;;;;;;;;5015952;28;20207;-81
2022/03/06 08:49:37;;;;;;;15.83;11.63;;;;;;;;;;5013950;28;20211;-79
2022/03/06 08:52:05;;;;;;;16.93;12.10;;;;;;;;;;5014926;28;20309;-79
2022/03/06 08:54:32;;;;;;;15.70;12.23;;;;;;;;;;5014034;28;20310;-78
2022/03/06 08:57:00;;;;;;;17.10;12.40;;;;;;;;;;5026013;28;20230;-77
2022/03/06 08:59:27;;;;;;;16.90;12.17;;;;;;;;;;5026462;28;20205;-78
2022/03/06 09:01:55;;;;;;;17.23;13.07;;;;;;;;;;5022415;28;20202;-78
2022/03/06 09:04:23;;;;;;;17.77;12.73;;;;;;;;;;5016133;28;20252;-85
2022/03/06 09:06:51;;;;;;;15.37;11.90;;;;;;;;;;5017809;28;20289;-77
2022/03/06 09:09:18;;;;;;;16.47;12.80;;;;;;;;;;5029844;28;20233;-77
2022/03/06 09:11:46;;;;;;;15.97;12.43;;;;;;;;;;5025725;28;20198;-76
2022/03/06 09:14:14;;;;;;;16.47;11.27;;;;;;;;;;5025236;28;20226;-75
2022/03/06 09:16:42;;;;;;;16.57;11.73;;;;;;;;;;5024579;28;20218;-78
2022/03/06 09:19:09;;;;;;;17.37;12.10;;;;;;;;;;5013743;28;20207;-79
2022/03/06 09:21:36;;;;;;;16.03;11.80;;;;;;;;;;5021709;28;20338;-75
2022/03/06 09:24:03;;;;;;;17.43;11.93;;;;;;;;;;5020445;28;20312;-75
2022/03/06 09:26:31;;;;;;;16.83;12.30;;;;;;;;;;5019693;28;20198;-76
2022/03/06 09:29:00;;;;;;;17.37;11.93;;;;;;;;;;5014192;28;20217;-75
2022/03/06 09:31:29;;;;;;;14.57;11.20;;;;;;;;;;5030397;28;20203;-75
2022/03/06 09:33:56;;;;;;;16.33;12.10;;;;;;;;;;5013133;28;20239;-77
2022/03/06 09:36:24;;;;;;;16.43;11.73;;;;;;;;;;5017214;28;20248;-76
2022/03/06 09:38:51;;;;;;;16.27;11.93;;;;;;;;;;5030085;28;20289;-76
2022/03/06 09:41:21;;;;;;;15.57;10.93;;;;;;;;;;5017889;28;20198;-75
2022/03/06 09:43:50;;;;;;;16.80;11.83;;;;;;;;;;5015043;28;20298;-77
2022/03/06 09:46:17;;;;;;;15.97;11.47;;;;;;;;;;5014248;28;20206;-75
2022/03/06 09:48:45;;;;;;;14.07;10.87;;;;;;;;;;5022607;28;20266;-75
2022/03/06 09:51:13;;;;;;;15.40;11.43;;;;;;;;;;5013864;28;20209;-75
2022/03/06 09:53:40;;;;;;;14.57;11.30;;;;;;;;;;5017698;28;20254;-75
2022/03/06 09:56:07;;;;;;;13.93;11.07;;;;;;;;;;5016086;28;20306;-74
2022/03/06 09:58:34;;;;;;;16.17;11.40;;;;;;;;;;5019510;28;20204;-75
2022/03/06 10:01:02;;;;;;;14.57;11.30;;;;;;;;;;5013767;28;20214;-75
2022/03/06 10:03:30;;;;;;;16.13;11.13;;;;;;;;;;5013615;28;20234;-75
2022/03/06 10:05:59;;;;;;;16.10;11.37;;;;;;;;;;5019597;28;20195;-75
2022/03/06 10:08:26;;;;;;;15.57;11.43;;;;;;;;;;5014847;28;20195;-75
2022/03/06 10:10:55;;;;;;;15.87;12.10;;;;;;;;;;5016877;28;20213;-74
2022/03/06 10:13:25;;;;;;;15.40;11.90;;;;;;;;;;5017960;28;20257;-74
2022/03/06 10:15:58;;;;;;;12.77;10.43;;;;;;;;;;5024381;28;20233;-75
2022/03/06 10:18:26;;;;;;;15.50;11.70;;;;;;;;;;5020839;28;20218;-75
2022/03/06 10:20:53;;;;;;;14.87;11.27;;;;;;;;;;5012640;28;20209;-74
2022/03/06 10:23:28;;;;;;;14.80;11.23;;;;;;;;;;5017190;28;20258;-74
2022/03/06 10:26:02;;;;;;;13.73;10.90;;;;;;;;;;5026586;28;20205;-75
2022/03/06 10:28:29;;;;;;;12.23;10.63;;;;;;;;;;5011809;28;20198;-75
2022/03/06 10:31:03;;;;;;;14.10;11.60;;;;;;;;;;5019985;28;20198;-75
2022/03/06 10:33:30;;;;;;;13.73;11.17;;;;;;;;;;5016133;28;20260;-75
2022/03/06 10:35:58;;;;;;;14.63;11.13;;;;;;;;;;5018081;28;20213;-75
2022/03/06 10:38:26;;;;;;;11.97;9.73;;;;;;;;;;5017498;28;20298;-75
2022/03/06 10:40:55;;;;;;;14.43;10.63;;;;;;;;;;5023168;28;20229;-75
2022/03/06 10:43:23;;;;;;;13.33;10.30;;;;;;;;;;5019288;28;20222;-74
2022/03/06 10:45:51;;;;;;;11.87;9.63;;;;;;;;;;5019576;28;20573;-75
2022/03/06 10:48:19;;;;;;;12.10;10.03;;;;;;;;;;5011337;28;20210;-75
2022/03/06 10:50:46;;;;;;;12.03;9.60;;;;;;;;;;5018782;28;20224;-75
2022/03/06 10:53:21;;;;;;;10.80;9.33;;;;;;;;;;5015340;28;20226;-75
2022/03/06 10:55:48;;;;;;;12.77;10.97;;;;;;;;;;5021090;28;20248;-75
2022/03/06 10:58:17;;;;;;;14.80;11.13;;;;;;;;;;5019605;28;20294;-75
2022/03/06 11:00:44;;;;;;;11.87;10.47;;;;;;;;;;5018491;28;20201;-77
2022/03/06 11:03:13;;;;;;;12.43;10.33;;;;;;;;;;5012163;28;20222;-78
2022/03/06 11:05:42;;;;;;;12.83;10.63;;;;;;;;;;5013748;28;20206;-77
2022/03/06 11:08:10;;;;;;;12.47;10.20;;;;;;;;;;5011687;28;20210;-76
2022/03/06 11:10:37;;;;;;;12.07;9.93;;;;;;;;;;5013342;28;20257;-75
2022/03/06 11:13:04;;;;;;;12.17;10.33;;;;;;;;;;5024709;28;20230;-75
2022/03/06 11:15:33;;;;;;;12.73;10.07;;;;;;;;;;5012210;28;20770;-75
2022/03/06 11:18:01;;;;;;;11.33;9.90;;;;;;;;;;5010797;28;20220;-76
2022/03/06 11:20:29;;;;;;;11.10;9.40;;;;;;;;;;5014262;28;20217;-75
2022/03/06 11:23:00;;;;;;;10.97;9.77;;;;;;;;;;5011746;28;20261;-75
2022/03/06 11:25:29;;;;;;;10.87;9.47;;;;;;;;;;5019573;28;20206;-76
2022/03/06 11:28:02;;;;;;;12.10;10.10;;;;;;;;;;5025832;28;20209;-76
2022/03/06 11:30:29;;;;;;;12.47;9.97;;;;;;;;;;5017417;28;20295;-77
2022/03/06 11:33:02;;;;;;;11.57;9.27;;;;;;;;;;5017536;28;20227;-77
2022/03/06 11:35:33;;;;;;;12.63;9.67;;;;;;;;;;5033262;28;20244;-76
2022/03/06 11:38:01;;;;;;;11.17;9.63;;;;;;;;;;5028138;28;20306;-76
2022/03/06 11:40:37;;;;;;;12.90;11.10;;;;;;;;;;5017394;28;20205;-78
2022/03/06 11:43:04;;;;;;;12.67;10.03;;;;;;;;;;5020174;28;20237;-76
2022/03/06 11:45:45;;;;;;;10.73;8.93;;;;;;;;;;5015322;28;20202;-75
2022/03/06 11:48:22;;;;;;;11.47;9.20;;;;;;;;;;5033296;28;20215;-75
2022/03/06 11:51:04;;;;;;;9.77;8.47;;;;;;;;;;5030317;28;20201;-76
2022/03/06 11:53:47;;;;;;;11.40;9.17;;;;;;;;;;5020842;28;20248;-76
2022/03/06 11:56:32;;;;;;;10.93;8.87;;;;;;;;;;5023203;28;20228;-76
2022/03/06 11:59:00;;;;;;;11.77;10.00;;;;;;;;;;5018658;28;20209;-75
2022/03/06 12:01:28;;;;;;;9.70;8.70;;;;;;;;;;5021072;28;20237;-76
2022/03/06 12:03:56;;;;;;;9.80;8.80;;;;;;;;;;5033757;28;20228;-76
2022/03/06 12:06:24;;;;;;;9.53;8.23;;;;;;;;;;5034045;28;20327;-76
2022/03/06 12:08:53;;;;;;;9.90;8.87;;;;;;;;;;5019018;28;20208;-76
2022/03/06 12:11:21;;;;;;;10.03;8.63;;;;;;;;;;5014497;28;20289;-76
2022/03/06 12:13:50;;;;;;;9.53;8.40;;;;;;;;;;5033281;28;20229;-76
2022/03/06 12:16:18;;;;;;;11.93;9.47;;;;;;;;;;5030733;28;20217;-76
2022/03/06 12:19:00;;;;;;;10.10;8.97;;;;;;;;;;5013400;28;20211;-76
2022/03/06 12:21:36;;;;;;;10.57;9.13;;;;;;;;;;5013597;28;20318;-78
2022/03/06 12:24:10;;;;;;;10.67;9.17;;;;;;;;;;5012752;28;20237;-75
2022/03/06 12:26:44;;;;;;;9.60;8.60;;;;;;;;;;5019864;28;20208;-77
2022/03/06 12:29:13;;;;;;;10.53;8.97;;;;;;;;;;5020643;28;20205;-75
2022/03/06 12:31:40;;;;;;;10.90;9.13;;;;;;;;;;5023968;28;20210;-76
2022/03/06 12:34:22;;;;;;;10.10;8.53;;;;;;;;;;5021124;28;20238;-78
2022/03/06 12:36:55;;;;;;;10.27;9.20;;;;;;;;;;5019213;28;20312;-76
2022/03/06 12:39:23;;;;;;;9.63;8.60;;;;;;;;;;5032513;28;20213;-85
2022/03/06 12:41:50;;;;;;;10.23;9.20;;;;;;;;;;5024483;28;20206;-75
2022/03/06 12:44:21;;;;;;;10.03;9.03;;;;;;;;;;5013709;28;20310;-75
2022/03/06 12:46:48;;;;;;;10.40;9.30;;;;;;;;;;5020214;28;20336;-78
2022/03/06 12:49:16;;;;;;;10.27;9.03;;;;;;;;;;5018666;28;20290;-76
2022/03/06 12:51:43;;;;;;;11.00;9.07;;;;;;;;;;5014319;28;20214;-78
2022/03/06 12:54:23;;;;;;;10.73;9.63;;;;;;;;;;5014914;28;20341;-75
2022/03/06 12:56:53;;;;;;;9.97;8.93;;;;;;;;;;5013056;28;20237;-75
2022/03/06 12:59:21;;;;;;;10.57;9.40;;;;;;;;;;5019533;28;20237;-75
2022/03/06 13:01:49;;;;;;;10.13;9.07;;;;;;;;;;5017022;28;20209;-80
2022/03/06 13:04:17;;;;;;;10.00;8.90;;;;;;;;;;5016107;28;20262;-78
2022/03/06 13:06:45;;;;;;;11.10;10.00;;;;;;;;;;5020215;28;20573;-82
2022/03/06 13:09:23;;;;;;;10.97;9.13;;;;;;;;;;5024329;28;20211;-78
2022/03/06 13:11:51;;;;;;;10.10;8.87;;;;;;;;;;5017598;28;20293;-78
2022/03/06 13:14:26;;;;;;;11.03;9.87;;;;;;;;;;5015597;28;20231;-78
2022/03/06 13:16:55;;;;;;;10.87;9.77;;;;;;;;;;5012352;28;20715;-78
2022/03/06 13:19:22;;;;;;;10.40;9.30;;;;;;;;;;5016859;28;20298;-79
2022/03/06 13:21:49;;;;;;;10.60;9.60;;;;;;;;;;5012510;28;20277;-78
2022/03/06 13:24:17;;;;;;;10.27;8.70;;;;;;;;;;5012219;28;20219;-77
2022/03/06 13:26:46;;;;;;;9.87;8.70;;;;;;;;;;5013462;28;20198;-77
2022/03/06 13:29:19;;;;;;;9.60;8.57;;;;;;;;;;5012801;28;20221;-78
2022/03/06 13:31:47;;;;;;;9.80;8.80;;;;;;;;;;5013234;28;20233;-80
2022/03/06 13:34:15;;;;;;;9.87;8.87;;;;;;;;;;5047724;23;20233;-76
2022/03/06 13:36:42;;;;;;;9.90;8.90;;;;;;;;;;5051005;28;20287;-77
2022/03/06 13:39:10;;;;;;;10.00;8.83;;;;;;;;;;5052391;28;20194;-77
2022/03/06 13:41:38;;;;;;;9.30;8.40;;;;;;;;;;5049813;28;20205;-77
2022/03/06 13:44:07;;;;;;;9.60;8.53;;;;;;;;;;5040487;28;20229;-75
2022/03/06 13:46:38;;;;;;;9.20;8.20;;;;;;;;;;5032457;28;20198;-80
2022/03/06 13:49:13;;;;;;;11.23;9.03;;;;;;;;;;5045115;28;20209;-81
2022/03/06 13:51:40;;;;;;;9.37;8.33;;;;;;;;;;5048730;28;20225;-84
2022/03/06 13:54:08;;;;;;;9.47;8.47;;;;;;;;;;5049525;28;20229;-83
2022/03/06 13:56:36;;;;;;;10.47;9.40;;;;;;;;;;5048659;28;20232;-86
2022/03/06 13:59:06;;;;;;;10.20;8.50;;;;;;;;;;5046000;28;20202;-81
2022/03/06 14:01:36;;;;;;;9.73;8.73;;;;;;;;;;5053392;28;20193;-87
2022/03/06 14:04:05;;;;;;;10.23;8.97;;;;;;;;;;5047813;28;20229;-80
2022/03/06 14:06:38;;;;;;;10.23;9.23;;;;;;;;;;5048280;28;20198;-85
2022/03/06 14:09:18;;;;;;;9.53;8.53;;;;;;;;;;5050792;28;20189;-87
2022/03/06 14:11:45;;;;;;;9.00;8.20;;;;;;;;;;5056718;28;20208;-86
2022/03/06 14:14:15;;;;;;;9.00;8.10;;;;;;;;;;5056771;28;20205;-89
2022/03/06 14:16:48;;;;;;;9.97;8.17;;;;;;;;;;5056218;28;20304;-89
2022/03/06 14:19:18;;;;;;;8.90;8.00;;;;;;;;;;5056323;28;20196;-86
2022/03/06 14:21:48;;;;;;;10.23;8.37;;;;;;;;;;5055392;28;20237;-91
2022/03/06 14:24:29;;;;;;;9.93;8.93;;;;;;;;;;5047132;28;20293;-81
2022/03/06 14:27:01;;;;;;;9.97;8.93;;;;;;;;;;5021654;28;20281;-78
2022/03/06 14:29:31;;;;;;;10.30;9.03;;;;;;;;;;5029423;28;20229;-80